Airfield :
LOGIN :

Register | Disclaimer

   EN    FR    IT 

 










Legend :    VFR   Marginal VFR   IFR   Intensive IFR   Very Intensive IFR
Visi :
Ceiling :
>= 8 km
>= 3000ft
5 to 8 km
1000 to 3000 ft
1500m to 5 km
500 to 1000 ft
800 to 1500m
200 to 500 ft
< 800m
< 200 ft
Symbols :   Thunderstorms  Fog  Heavy snow  Heavy precipitations  Wind > 20 kt
SIGMETs :     Misc.  Thunderstorms  Icing  Turbulence  Mountain Waves  Volcanic Ashes







- Airport Elevation : 400 ft
- IATA code : BNX


LQBK - Banja Luka

CURRENT METAR :
  • 212100Z 29006KT CAVOK 24/17 Q1012 NOSIG

EXPIRED METARs :
  • 212030Z 23010KT CAVOK 26/17 Q1012 NOSIG
  • 212000Z 23012KT CAVOK 26/17 Q1012 NOSIG
  • 211930Z 21006KT CAVOK 25/18 Q1012 NOSIG
  • 211900Z 21008KT CAVOK 26/18 Q1012 NOSIG
  • 211830Z 19008KT CAVOK 26/18 Q1011 NOSIG

TAF TAF LQBK
Valid from the 21 at 18:00 until the 22 at 18:00 UTC


211700Z 2118/2218 23006KT CAVOK TX27/2118Z TN14/2218Z
BECMG 2204/2206 32010KT RA BKN015 BKN040
TEMPO 2204/2207 34015G25KT 3000 TSRA FEW030CB BKN040
BECMG 2216/2218 NSW
No reported NOTAMs for that airfield.



MET'MAP, your aeronautical weather chart ! - Copyright ORBIFLY December 2007 - Disclaimer

ORBIFLY MET'MAP TEAM :

Programming & Development : Alexandra Zaïnal
Concept & Development : Baudouin d'Aumeries
Co-Development & Prog : Marc-Olivier Méhu
Technical & hardware support : Manuel Goepfert

Contact : metmap@orbifly.com




SOURCES & CREDITS :

   NOAA